Vienna International/Schwechat

Airport
ICAO code: 
LOWW
IATA Code: 
VIE
Summary
ICAO Region: 
EUR
Territory: 
Location: 
Schwechat, Vienna
Serving: 
Vienna
Elevation: 
600 ft
Coordinates: 
Aerial View: 
48° 6' 37.073" N, 16° 34' 10.921" E
Metar
Observation
LOWW 291050Z 31016KT 9999 FEW025 03/M02 Q1001 NOSIG
Station
Wien / Schwechat-Flughafen
Date/Time
2021-11-29 10:50:00
Wind direction
310°
Wind speed
16 kts
Lowest cloud amount
few clouds
Temperature
3°C
Dew point
-2°C
Humidity
69%
QNH
1001 hPa
Weather condition
n/a

International airport serving Vienna, capital of Austria.

Climatology

Humid Continental climate (Köppen climate classification Dfb)

Runways

Designator Length Width Surface Rops
11/29 3500 45 ASP Yes/Yes
16/34 3600 45 ASP Yes/Yes
Airport map: 
Aerial View: 

Accidents and Serious Incidents at or in the vicinity of LOWW

SKYbrary Partners:

Safety knowledge contributed by: